createdAt,value
2018-08-30T00:03:58.856Z,16.6
2018-08-30T00:09:01.328Z,16.5
2018-08-30T00:14:03.789Z,16.5
2018-08-30T00:19:06.530Z,16.5
2018-08-30T00:29:11.212Z,16.6
2018-08-30T00:34:13.524Z,16.6
2018-08-30T00:39:15.995Z,16.6
2018-08-30T00:44:18.402Z,16.7
2018-08-30T00:49:20.822Z,16.6
2018-08-30T00:59:25.823Z,16.7
2018-08-30T01:04:28.447Z,16.8
2018-08-30T01:09:30.616Z,16.9
2018-08-30T01:14:33.043Z,16.9
2018-08-30T01:19:35.478Z,16.9
2018-08-30T01:24:37.930Z,16.8
2018-08-30T01:34:43.286Z,16.6
2018-08-30T01:39:45.254Z,16.6
2018-08-30T01:44:47.683Z,16.6
2018-08-30T01:59:55.733Z,16.6
2018-08-30T02:04:57.437Z,16.7
2018-08-30T02:09:59.921Z,16.7
2018-08-30T02:20:04.914Z,16.8
2018-08-30T02:25:07.201Z,17
2018-08-30T02:30:09.671Z,17.2
2018-08-30T02:35:12.138Z,17.4
2018-08-30T02:45:16.960Z,17.6
2018-08-30T02:50:19.406Z,17.7
2018-08-30T03:00:26.454Z,18
2018-08-30T03:05:26.907Z,18.2
2018-08-30T03:10:29.474Z,18.2
2018-08-30T03:15:31.946Z,18.2
2018-08-30T03:20:34.286Z,18.3
2018-08-30T03:25:36.633Z,18.2
2018-08-30T03:30:40.227Z,18.2
2018-08-30T03:40:43.899Z,18.2
2018-08-30T03:50:48.736Z,18.3
2018-08-30T04:00:53.617Z,18.3
2018-08-30T04:10:58.452Z,18.3
2018-08-30T04:16:00.965Z,18.2
2018-08-30T04:21:03.344Z,18.2
2018-08-30T04:26:05.778Z,18.1
2018-08-30T04:31:08.213Z,18.1
2018-08-30T04:36:10.655Z,18
2018-08-30T04:41:13.252Z,18
2018-08-30T04:56:20.563Z,17.9
2018-08-30T05:01:23.288Z,17.9
2018-08-30T05:16:30.264Z,17.8
2018-08-30T05:36:40.032Z,17.7
2018-08-30T05:41:42.468Z,17.6
2018-08-30T05:46:44.828Z,17.6
2018-08-30T05:51:47.273Z,17.7
2018-08-30T05:56:49.781Z,17.6
2018-08-30T06:01:52.148Z,17.6
2018-08-30T06:06:54.609Z,17.7
2018-08-30T06:11:57.029Z,17.8
2018-08-30T06:16:59.491Z,17.9
2018-08-30T06:27:04.611Z,18
2018-08-30T06:37:09.256Z,18.1
2018-08-30T06:42:11.660Z,18.1
2018-08-30T06:47:14.173Z,18.1
2018-08-30T06:57:18.996Z,18.4
2018-08-30T07:17:28.896Z,18.8
2018-08-30T07:32:36.089Z,18.6
2018-08-30T07:37:38.640Z,18.4
2018-08-30T07:42:40.996Z,18.2
2018-08-30T07:47:43.497Z,18
2018-08-30T07:52:45.878Z,17.7
2018-08-30T07:57:48.368Z,17.6
2018-08-30T08:02:50.728Z,17.6
2018-08-30T08:28:03.006Z,17.3
2018-08-30T08:33:05.853Z,17.1
2018-08-30T08:38:08.193Z,17
2018-08-30T08:58:17.585Z,17.1
2018-08-30T09:08:22.508Z,17.2
2018-08-30T09:18:27.426Z,17.4
2018-08-30T09:23:29.865Z,17.5
2018-08-30T09:28:32.239Z,17.5
2018-08-30T09:33:35.017Z,17.4
2018-08-30T09:38:37.146Z,17.4
2018-08-30T09:43:39.577Z,17.4
2018-08-30T09:48:42.008Z,17.4
2018-08-30T09:58:46.891Z,17.3
2018-08-30T10:03:49.495Z,17.4
2018-08-30T10:08:51.787Z,17.6
2018-08-30T10:18:56.889Z,17.5
2018-08-30T10:23:59.095Z,17.3
2018-08-30T10:29:01.578Z,17.1
2018-08-30T10:34:04.056Z,17.1
2018-08-30T10:39:06.414Z,17.4
2018-08-30T10:44:08.891Z,17.9
2018-08-30T10:49:11.439Z,18.2
2018-08-30T10:54:13.722Z,18.2
2018-08-30T11:04:18.874Z,17.7
2018-08-30T11:09:21.239Z,17.3
2018-08-30T11:14:23.476Z,17
2018-08-30T11:24:28.571Z,16.7
2018-08-30T11:29:30.824Z,16.6
2018-08-30T11:34:33.259Z,16.6
2018-08-30T11:39:35.750Z,16.6
2018-08-30T11:44:38.117Z,16.6
2018-08-30T11:49:40.855Z,16.5
2018-08-30T11:54:43.100Z,16.4
2018-08-30T11:59:45.519Z,16.3
2018-08-30T12:04:49.645Z,16.2
2018-08-30T12:09:50.848Z,16.1
2018-08-30T12:14:52.786Z,16.1
2018-08-30T12:19:55.330Z,16
2018-08-30T12:24:57.667Z,15.9
2018-08-30T12:30:00.163Z,15.9
2018-08-30T12:35:02.812Z,15.8
2018-08-30T12:50:10.206Z,15.8
2018-08-30T12:55:12.410Z,15.8
2018-08-30T13:10:20.123Z,15.9
2018-08-30T13:15:22.742Z,16
2018-08-30T13:35:32.429Z,16
2018-08-30T13:40:35.082Z,16
2018-08-30T13:45:37.328Z,16
2018-08-30T13:50:39.658Z,16
2018-08-30T13:55:42.004Z,16.1
2018-08-30T14:00:44.814Z,16
2018-08-30T14:05:46.723Z,16
2018-08-30T14:10:49.342Z,15.9
2018-08-30T14:15:51.336Z,15.9
2018-08-30T14:20:53.784Z,15.8
2018-08-30T14:25:56.233Z,15.8
2018-08-30T14:30:58.788Z,15.8
2018-08-30T14:36:01.257Z,15.9
2018-08-30T14:41:03.865Z,15.9
2018-08-30T14:51:08.507Z,15.9
2018-08-30T15:11:18.501Z,16
2018-08-30T15:16:20.655Z,16.8
2018-08-30T15:21:23.084Z,20
2018-08-30T15:26:25.514Z,22.9
2018-08-30T15:31:28.018Z,23.5
2018-08-30T15:36:30.424Z,22.1
2018-08-30T15:41:32.873Z,20.9
2018-08-30T15:46:35.442Z,20
2018-08-30T15:56:40.161Z,18.7
2018-08-30T16:01:42.672Z,18.4
2018-08-30T16:06:45.142Z,20.9
2018-08-30T16:11:47.504Z,23.8
2018-08-30T16:21:52.503Z,23.5
2018-08-30T16:26:54.811Z,21.5
2018-08-30T16:31:57.332Z,20
2018-08-30T16:42:02.133Z,18.5
2018-08-30T16:52:07.426Z,17.9
2018-08-30T17:02:11.992Z,17.6
2018-08-30T17:12:16.984Z,17.4
2018-08-30T17:17:19.212Z,17.3
2018-08-30T17:27:24.112Z,17
2018-08-30T17:32:26.544Z,16.9
2018-08-30T17:42:31.423Z,16.6
2018-08-30T17:47:34.030Z,16.4
2018-08-30T17:52:36.379Z,16.2
2018-08-30T17:57:39.194Z,16.1
2018-08-30T18:02:41.382Z,16
2018-08-30T18:12:46.269Z,15.8
2018-08-30T18:17:48.609Z,15.7
2018-08-30T18:22:50.960Z,15.6
2018-08-30T18:43:00.930Z,15.4
2018-08-30T18:53:05.622Z,15.4
2018-08-30T18:58:08.200Z,15.4
2018-08-30T19:18:20.243Z,15.3
2018-08-30T19:28:22.691Z,15.2
2018-08-30T19:33:25.111Z,15.1
2018-08-30T19:43:29.996Z,15
2018-08-30T19:48:32.448Z,15
2018-08-30T19:58:37.338Z,15
2018-08-30T20:03:40.200Z,15
2018-08-30T20:08:42.522Z,15
2018-08-30T20:13:44.663Z,15.1
2018-08-30T20:18:47.667Z,15.1
2018-08-30T20:28:51.990Z,15.1
2018-08-30T20:33:54.438Z,15
2018-08-30T20:38:56.966Z,15
2018-08-30T20:43:59.349Z,14.9
2018-08-30T20:49:01.742Z,14.9
2018-08-30T20:54:04.229Z,15
2018-08-30T20:59:06.606Z,15
2018-08-30T21:09:11.481Z,14.9
2018-08-30T21:14:13.918Z,14.9
2018-08-30T21:19:16.368Z,14.9
2018-08-30T21:24:18.807Z,14.9
2018-08-30T21:29:21.300Z,14.8
2018-08-30T21:34:23.757Z,14.8
2018-08-30T21:39:26.127Z,14.8
2018-08-30T21:44:28.563Z,14.8
2018-08-30T21:49:31.158Z,14.7
2018-08-30T21:54:33.443Z,14.7
2018-08-30T21:59:36.002Z,14.6
2018-08-30T22:04:38.321Z,14.4
2018-08-30T22:09:40.904Z,14.3
2018-08-30T22:14:43.221Z,14.1
2018-08-30T22:19:45.721Z,14.1
2018-08-30T22:24:48.086Z,14
2018-08-30T22:29:50.737Z,14
2018-08-30T22:34:53.113Z,13.9
2018-08-30T22:39:55.496Z,13.8
2018-08-30T22:50:00.303Z,13.8
2018-08-30T22:55:02.797Z,13.7
2018-08-30T23:05:07.613Z,13.8
2018-08-30T23:10:10.057Z,13.7
2018-08-30T23:15:12.493Z,13.7
2018-08-30T23:20:15.139Z,13.7
2018-08-30T23:25:17.519Z,13.7
2018-08-30T23:30:19.857Z,13.7
2018-08-30T23:35:22.238Z,13.7
2018-08-30T23:40:24.698Z,13.7
2018-08-30T23:45:27.399Z,13.8
2018-08-30T23:50:29.567Z,13.8
2018-08-30T23:55:32.207Z,13.8
